Time;durP1;ratioP1;P1;durP2;ratioP2;P2;SDS_P1;SDS_P2;PMS_P1;PMS_P2;Temp;Humidity;BMP_temperature;BMP_pressure;BME280_temperature;BME280_humidity;BME280_pressure;Samples;Min_cycle;Max_cycle;Signal;HPM_P1;HPM_P2
2023/05/24 00:01:15;;;;;;;7.10;3.23;;;10.40;99.90;;;;;;5019842;28;20635;-69
2023/05/24 00:03:41;;;;;;;12.40;3.30;;;10.30;99.90;;;;;;5025459;28;20518;-69
2023/05/24 00:06:07;;;;;;;10.43;3.13;;;10.30;99.90;;;;;;5019651;28;20286;-69
2023/05/24 00:08:33;;;;;;;6.87;2.60;;;10.20;99.90;;;;;;5024625;28;22188;-69
2023/05/24 00:10:59;;;;;;;8.40;2.97;;;10.20;99.90;;;;;;5019694;28;20172;-69
2023/05/24 00:13:25;;;;;;;5.00;2.70;;;10.20;99.90;;;;;;5027092;28;20419;-69
2023/05/24 00:15:51;;;;;;;6.97;3.00;;;10.30;99.90;;;;;;5019398;28;20452;-69
2023/05/24 00:18:17;;;;;;;4.40;2.90;;;10.30;99.90;;;;;;5012093;28;20458;-69
2023/05/24 00:20:43;;;;;;;8.10;3.63;;;10.30;99.90;;;;;;5025118;28;20187;-68
2023/05/24 00:23:09;;;;;;;3.80;2.40;;;10.20;99.90;;;;;;5019899;28;20515;-70
2023/05/24 00:25:35;;;;;;;7.63;3.80;;;10.10;99.90;;;;;;5026147;28;20297;-70
2023/05/24 00:28:00;;;;;;;6.30;3.43;;;10.10;99.90;;;;;;5019130;28;20976;-69
2023/05/24 00:30:27;;;;;;;9.33;3.23;;;10.00;99.90;;;;;;5026700;28;20202;-71
2023/05/24 00:32:53;;;;;;;10.33;3.00;;;10.10;99.90;;;;;;5019303;28;20400;-69
2023/05/24 00:35:18;;;;;;;9.60;2.83;;;10.00;99.90;;;;;;5018928;28;20186;-68
2023/05/24 00:37:44;;;;;;;8.93;3.70;;;10.10;99.90;;;;;;5025157;28;20201;-69
2023/05/24 00:40:11;;;;;;;6.80;3.30;;;10.10;99.90;;;;;;5019518;28;20173;-69
2023/05/24 00:42:37;;;;;;;8.50;3.17;;;10.10;99.90;;;;;;5026300;28;20194;-70
2023/05/24 00:45:02;;;;;;;6.63;2.80;;;10.10;99.90;;;;;;5019125;28;20828;-69
2023/05/24 00:47:28;;;;;;;8.90;2.77;;;10.20;99.90;;;;;;5026880;28;20800;-70
2023/05/24 00:49:54;;;;;;;5.87;2.80;;;10.20;99.90;;;;;;5019358;28;20177;-69
2023/05/24 00:52:20;;;;;;;6.40;2.70;;;10.20;99.90;;;;;;5018532;28;20183;-70
2023/05/24 00:54:46;;;;;;;6.00;2.33;;;10.20;99.90;;;;;;5028288;28;20183;-70
2023/05/24 00:57:14;;;;;;;4.67;2.30;;;10.20;99.90;;;;;;5022934;28;20435;-70
2023/05/24 00:59:41;;;;;;;6.60;2.70;;;10.20;99.90;;;;;;5027204;28;20179;-69
2023/05/24 01:02:07;;;;;;;5.37;3.60;;;10.30;99.90;;;;;;5019394;28;20455;-70
2023/05/24 01:04:32;;;;;;;12.33;3.47;;;10.30;99.90;;;;;;5024922;28;20602;-69
2023/05/24 01:07:17;;;;;;;4.03;2.37;;;10.40;99.90;;;;;;5026285;28;20189;-70
2023/05/24 01:10:04;;;;;;;10.63;2.53;;;10.40;99.90;;;;;;5019343;28;20184;-70
2023/05/24 01:12:48;;;;;;;11.60;3.00;;;10.40;99.90;;;;;;5025493;28;20432;-70
2023/05/24 01:15:30;;;;;;;9.37;3.10;;;10.50;99.90;;;;;;5026288;28;20413;-70
2023/05/24 01:18:00;;;;;;;6.97;2.67;;;10.50;99.90;;;;;;5021904;28;20419;-69
2023/05/24 01:20:29;;;;;;;11.03;3.40;;;10.50;99.90;;;;;;5028360;28;20411;-70
2023/05/24 01:23:14;;;;;;;4.90;2.30;;;10.50;99.90;;;;;;5023036;28;20505;-69
2023/05/24 01:26:03;;;;;;;5.73;2.27;;;10.50;99.90;;;;;;5026437;28;20471;-70
2023/05/24 01:28:32;;;;;;;9.00;2.30;;;10.60;99.90;;;;;;5022246;28;20445;-70
2023/05/24 01:30:59;;;;;;;3.53;2.03;;;10.50;99.90;;;;;;5026182;28;20418;-70
2023/05/24 01:33:25;;;;;;;7.53;2.53;;;10.50;99.90;;;;;;5017832;28;20909;-71
2023/05/24 01:38:18;;;;;;;7.30;2.50;;;10.50;99.90;;;;;;5030137;28;20470;-68
2023/05/24 01:40:49;;;;;;;6.53;2.73;;;10.50;99.90;;;;;;5033191;28;20436;-70
2023/05/24 01:43:22;;;;;;;9.80;4.83;;;10.50;99.90;;;;;;5035889;28;20259;-68
2023/05/24 01:46:21;;;;;;;10.60;2.57;;;10.50;99.90;;;;;;5037323;28;20544;-70
2023/05/24 01:49:06;;;;;;;12.90;2.90;;;10.50;99.90;;;;;;5017386;28;20906;-70
2023/05/24 01:51:55;;;;;;;6.63;2.30;;;10.50;99.90;;;;;;5021026;28;20395;-68
2023/05/24 01:54:24;;;;;;;6.03;2.53;;;10.50;99.90;;;;;;5025782;28;20407;-69
2023/05/24 01:56:53;;;;;;;5.43;2.27;;;10.60;99.90;;;;;;5018716;28;20487;-70
2023/05/24 01:59:20;;;;;;;13.37;2.60;;;10.60;99.90;;;;;;5013755;28;20430;-69
2023/05/24 02:01:47;;;;;;;5.00;2.70;;;10.60;99.90;;;;;;5022150;28;20418;-69
2023/05/24 02:04:12;;;;;;;10.27;2.57;;;10.60;99.90;;;;;;5021914;28;20647;-70
2023/05/24 02:06:38;;;;;;;11.53;3.27;;;10.60;99.90;;;;;;5022694;28;20509;-69
2023/05/24 02:09:03;;;;;;;7.77;2.40;;;10.60;99.90;;;;;;5016872;28;20177;-69
2023/05/24 02:11:29;;;;;;;5.23;2.27;;;10.60;99.90;;;;;;5021593;28;20168;-70
2023/05/24 02:13:54;;;;;;;5.73;2.03;;;10.50;99.90;;;;;;5022511;28;20270;-69
2023/05/24 02:16:22;;;;;;;6.10;2.93;;;10.50;99.90;;;;;;5017287;28;20534;-68
2023/05/24 02:18:49;;;;;;;7.97;3.43;;;10.50;99.90;;;;;;5023308;28;20663;-69
2023/05/24 02:21:15;;;;;;;9.03;2.00;;;10.50;99.90;;;;;;5022422;28;20409;-71
2023/05/24 02:23:40;;;;;;;13.13;3.20;;;10.50;99.90;;;;;;5019589;28;20429;-70
2023/05/24 02:26:06;;;;;;;6.33;2.43;;;10.50;99.90;;;;;;5013513;28;20231;-68
2023/05/24 02:28:32;;;;;;;5.83;2.40;;;10.60;99.90;;;;;;5019229;28;20196;-72
2023/05/24 02:30:57;;;;;;;20.23;3.10;;;10.60;99.90;;;;;;5014426;28;20235;-69
2023/05/24 02:33:24;;;;;;;7.57;2.30;;;10.50;99.90;;;;;;5017503;28;20176;-70
2023/05/24 02:35:50;;;;;;;8.43;2.93;;;10.50;99.90;;;;;;5018427;28;20192;-70
2023/05/24 02:38:16;;;;;;;6.73;2.27;;;10.50;99.90;;;;;;5012441;28;20835;-68
2023/05/24 02:40:41;;;;;;;5.70;2.33;;;10.50;99.90;;;;;;5019645;28;20546;-69
2023/05/24 02:43:08;;;;;;;5.97;2.90;;;10.50;99.90;;;;;;5022524;28;20190;-69
2023/05/24 02:45:35;;;;;;;8.13;2.47;;;10.50;99.90;;;;;;5019651;28;20232;-70
2023/05/24 02:48:01;;;;;;;5.27;3.43;;;10.50;99.90;;;;;;5015839;28;20470;-68
2023/05/24 02:50:26;;;;;;;7.00;1.93;;;10.50;99.90;;;;;;5018772;28;20554;-68
2023/05/24 02:52:52;;;;;;;7.23;2.70;;;10.50;99.90;;;;;;5023126;28;20176;-70
2023/05/24 02:55:18;;;;;;;6.77;2.77;;;10.50;99.90;;;;;;5014256;28;20216;-69
2023/05/24 02:57:43;;;;;;;12.23;2.40;;;10.50;99.90;;;;;;5024526;28;20203;-68
2023/05/24 03:00:10;;;;;;;6.30;2.67;;;10.50;99.90;;;;;;5014510;28;20179;-69
2023/05/24 03:02:39;;;;;;;10.43;2.80;;;10.40;99.90;;;;;;5014825;28;20646;-69
2023/05/24 03:05:06;;;;;;;4.30;3.60;;;10.40;99.90;;;;;;5021382;28;20975;-68
2023/05/24 03:07:32;;;;;;;4.50;3.10;;;10.40;99.90;;;;;;5019562;28;20938;-69
2023/05/24 03:09:58;;;;;;;6.77;3.00;;;10.40;99.90;;;;;;5021306;28;20493;-70
2023/05/24 03:12:23;;;;;;;3.30;2.37;;;10.40;99.90;;;;;;5021278;28;20406;-69
2023/05/24 03:14:49;;;;;;;7.73;2.80;;;10.40;99.90;;;;;;5015864;28;20415;-70
2023/05/24 03:17:14;;;;;;;5.30;2.67;;;10.30;99.90;;;;;;5014180;28;20383;-69
2023/05/24 03:19:40;;;;;;;13.33;3.00;;;10.30;99.90;;;;;;5021695;28;20195;-69
2023/05/24 03:22:06;;;;;;;7.33;2.60;;;10.40;99.90;;;;;;5017421;28;20239;-70
2023/05/24 03:24:32;;;;;;;9.30;2.90;;;10.30;99.90;;;;;;5014191;28;20450;-70
2023/05/24 03:26:58;;;;;;;18.90;4.07;;;10.30;99.90;;;;;;5023491;28;20198;-69
2023/05/24 03:29:23;;;;;;;10.50;2.90;;;10.30;99.90;;;;;;5013624;28;20250;-69
2023/05/24 03:31:49;;;;;;;5.73;2.50;;;10.30;99.90;;;;;;5015233;28;20190;-69
2023/05/24 03:34:15;;;;;;;13.83;3.40;;;10.30;99.90;;;;;;5022276;28;20195;-69
2023/05/24 03:36:40;;;;;;;10.03;3.03;;;10.30;99.90;;;;;;5010033;28;20203;-69
2023/05/24 03:39:06;;;;;;;9.90;2.77;;;10.30;99.90;;;;;;5009403;28;20173;-70
2023/05/24 03:41:32;;;;;;;10.03;3.00;;;10.30;99.90;;;;;;5021752;28;20498;-68
2023/05/24 03:43:59;;;;;;;9.10;3.30;;;10.30;99.90;;;;;;5016061;28;20409;-69
2023/05/24 03:46:24;;;;;;;9.83;3.20;;;10.30;99.90;;;;;;5020877;28;20718;-69
2023/05/24 03:48:50;;;;;;;8.60;3.33;;;10.40;99.90;;;;;;5020831;28;20418;-68
2023/05/24 03:51:16;;;;;;;15.03;4.23;;;10.50;99.90;;;;;;5013889;28;20179;-71
2023/05/24 03:53:41;;;;;;;8.77;4.90;;;10.50;99.90;;;;;;5016765;28;20205;-69
2023/05/24 03:56:07;;;;;;;7.13;3.33;;;10.40;99.90;;;;;;5021881;28;20184;-70
2023/05/24 03:58:32;;;;;;;10.77;4.70;;;10.50;99.90;;;;;;5019842;28;20180;-68
2023/05/24 04:00:58;;;;;;;6.43;2.80;;;10.60;99.90;;;;;;5019584;28;20182;-69
2023/05/24 04:03:24;;;;;;;11.50;2.90;;;10.60;99.90;;;;;;5024948;28;20225;-69
2023/05/24 04:05:50;;;;;;;12.90;3.50;;;10.60;99.90;;;;;;5009827;28;20523;-70
2023/05/24 04:08:16;;;;;;;6.23;2.83;;;10.70;99.90;;;;;;5018241;28;20412;-71
2023/05/24 04:10:42;;;;;;;15.27;3.33;;;10.70;99.90;;;;;;5011516;28;20437;-69
2023/05/24 04:13:08;;;;;;;11.53;3.20;;;10.60;99.90;;;;;;5010279;28;20184;-69
2023/05/24 04:15:33;;;;;;;7.20;2.60;;;10.60;99.90;;;;;;5010403;28;20172;-68
2023/05/24 04:17:59;;;;;;;9.17;3.20;;;10.60;99.90;;;;;;5016605;28;20286;-69
2023/05/24 04:20:26;;;;;;;7.53;2.10;;;10.50;99.90;;;;;;5011133;28;20180;-70
2023/05/24 04:22:53;;;;;;;13.80;3.17;;;10.60;99.90;;;;;;5020911;28;20180;-70
2023/05/24 04:25:19;;;;;;;5.07;2.37;;;10.70;99.90;;;;;;5009754;28;20481;-69
2023/05/24 04:27:47;;;;;;;11.60;3.20;;;10.70;99.90;;;;;;5021027;28;20788;-70
2023/05/24 04:30:14;;;;;;;8.03;3.47;;;10.70;99.90;;;;;;5014486;28;20403;-70
2023/05/24 04:32:40;;;;;;;11.30;2.90;;;10.60;99.90;;;;;;5022812;28;20451;-69
2023/05/24 04:35:07;;;;;;;8.20;2.40;;;10.70;99.90;;;;;;5021501;28;20465;-69
2023/05/24 04:37:32;;;;;;;8.47;2.70;;;10.80;99.90;;;;;;5021501;28;20265;-69
2023/05/24 04:39:58;;;;;;;7.60;2.80;;;10.80;99.90;;;;;;5021824;28;20893;-69
2023/05/24 04:42:23;;;;;;;7.33;3.13;;;10.80;99.90;;;;;;5026527;28;20286;-69
2023/05/24 04:44:49;;;;;;;10.70;2.93;;;10.90;99.90;;;;;;5023152;28;20210;-69
2023/05/24 04:47:15;;;;;;;11.07;3.13;;;10.80;99.90;;;;;;5019558;28;20623;-69
2023/05/24 04:49:40;;;;;;;7.23;3.40;;;10.90;99.90;;;;;;5022505;28;20448;-69
2023/05/24 04:52:06;;;;;;;6.50;2.93;;;10.90;99.90;;;;;;5014432;28;20185;-69
2023/05/24 04:54:32;;;;;;;13.87;3.20;;;10.90;99.90;;;;;;5021455;28;20171;-68
2023/05/24 04:56:58;;;;;;;9.53;2.70;;;10.80;99.90;;;;;;5027324;28;20430;-70
2023/05/24 04:59:24;;;;;;;4.03;2.67;;;10.70;99.90;;;;;;5022043;28;20419;-69
2023/05/24 05:01:50;;;;;;;5.70;3.03;;;10.90;99.90;;;;;;5018906;28;20219;-68
2023/05/24 05:04:15;;;;;;;7.93;2.90;;;10.90;99.90;;;;;;5018152;28;20830;-68
2023/05/24 05:06:43;;;;;;;11.67;3.33;;;11.10;99.90;;;;;;5024578;28;20199;-69
2023/05/24 05:09:11;;;;;;;7.70;3.13;;;11.10;99.90;;;;;;5027979;28;20169;-70
2023/05/24 05:11:37;;;;;;;11.20;3.00;;;11.10;99.90;;;;;;5030550;28;20442;-68
2023/05/24 05:14:03;;;;;;;6.20;3.70;;;11.10;99.90;;;;;;5023969;28;20450;-68
2023/05/24 05:16:29;;;;;;;9.90;3.77;;;11.00;99.90;;;;;;5023384;28;20200;-69
2023/05/24 05:18:54;;;;;;;10.83;3.20;;;11.10;99.90;;;;;;5016768;28;20903;-69
2023/05/24 05:21:20;;;;;;;21.10;4.80;;;11.10;99.90;;;;;;5026303;28;20183;-69
2023/05/24 05:23:46;;;;;;;14.27;4.73;;;11.10;99.90;;;;;;5014502;28;20695;-70
2023/05/24 05:26:11;;;;;;;7.70;3.83;;;11.10;99.90;;;;;;5017247;28;20208;-70
2023/05/24 05:28:37;;;;;;;10.60;4.07;;;11.10;99.90;;;;;;5024109;28;20176;-68
2023/05/24 05:31:03;;;;;;;12.03;3.17;;;11.10;99.90;;;;;;5016939;28;20181;-69
2023/05/24 05:33:30;;;;;;;19.33;4.40;;;11.10;99.90;;;;;;5013965;28;20283;-69
2023/05/24 05:35:56;;;;;;;9.50;4.07;;;11.20;99.90;;;;;;5023127;28;20178;-69
2023/05/24 05:38:22;;;;;;;12.60;4.10;;;11.00;99.90;;;;;;5020649;28;20430;-69
2023/05/24 05:40:47;;;;;;;15.37;4.83;;;11.20;99.90;;;;;;5020026;28;20512;-69
2023/05/24 05:43:13;;;;;;;15.80;3.57;;;11.30;99.90;;;;;;5016924;28;20401;-69
2023/05/24 05:45:39;;;;;;;10.07;3.00;;;11.50;99.90;;;;;;5014069;28;20203;-69
2023/05/24 05:48:04;;;;;;;18.20;5.33;;;11.40;99.90;;;;;;5017385;28;20669;-72
2023/05/24 05:50:30;;;;;;;4.70;3.00;;;11.30;99.90;;;;;;5015092;28;20979;-69
2023/05/24 05:52:56;;;;;;;9.60;3.90;;;11.60;99.90;;;;;;5017088;28;20245;-69
2023/05/24 05:55:22;;;;;;;13.70;4.57;;;11.70;99.90;;;;;;5027752;28;20199;-70
2023/05/24 05:57:48;;;;;;;15.43;3.90;;;11.90;99.90;;;;;;5022380;28;20434;-70
2023/05/24 06:00:14;;;;;;;7.87;4.00;;;11.80;99.90;;;;;;5016194;28;20418;-69
2023/05/24 06:02:39;;;;;;;9.37;4.10;;;11.80;99.90;;;;;;5023070;28;20214;-70
2023/05/24 06:05:05;;;;;;;6.97;3.80;;;11.90;99.90;;;;;;5017184;28;20983;-70
2023/05/24 06:07:31;;;;;;;10.60;3.37;;;11.70;99.90;;;;;;5018493;28;20258;-69
2023/05/24 06:09:57;;;;;;;8.00;3.27;;;11.40;99.90;;;;;;5017674;28;20184;-69
2023/05/24 06:12:22;;;;;;;13.70;4.07;;;11.30;99.90;;;;;;5022645;28;20496;-69
2023/05/24 06:14:49;;;;;;;15.67;5.17;;;11.50;99.90;;;;;;5021947;28;20536;-68
2023/05/24 06:17:15;;;;;;;14.30;4.37;;;11.40;99.90;;;;;;5015389;28;20196;-71
2023/05/24 06:19:42;;;;;;;21.10;4.50;;;11.60;99.90;;;;;;5020392;28;20518;-68
2023/05/24 06:22:08;;;;;;;11.40;3.73;;;11.30;99.90;;;;;;5016198;28;20411;-69
2023/05/24 06:24:34;;;;;;;14.27;4.30;;;11.70;99.90;;;;;;5023416;28;20775;-71
2023/05/24 06:26:59;;;;;;;14.13;4.00;;;11.70;99.90;;;;;;5017705;28;20566;-70
2023/05/24 06:29:25;;;;;;;14.60;5.47;;;12.00;99.90;;;;;;5022924;28;20411;-69
2023/05/24 06:31:51;;;;;;;10.93;4.27;;;12.10;99.90;;;;;;5012523;28;20204;-69
2023/05/24 06:34:19;;;;;;;10.90;4.40;;;12.30;99.90;;;;;;5022997;28;20182;-69
2023/05/24 06:36:47;;;;;;;15.93;4.77;;;12.30;99.90;;;;;;5015327;28;20207;-69
2023/05/24 06:39:13;;;;;;;17.73;4.13;;;12.00;99.90;;;;;;5025692;28;20426;-69
2023/05/24 06:41:41;;;;;;;18.40;4.87;;;12.20;99.90;;;;;;5017732;28;20476;-71
2023/05/24 06:44:06;;;;;;;12.53;3.50;;;12.60;99.90;;;;;;5013685;28;20515;-70
2023/05/24 06:46:32;;;;;;;14.77;5.20;;;12.80;99.90;;;;;;5013147;28;20964;-70
2023/05/24 06:48:58;;;;;;;14.73;4.33;;;12.80;99.90;;;;;;5012873;28;20271;-70
2023/05/24 06:51:23;;;;;;;11.47;5.37;;;12.60;99.90;;;;;;5016987;28;20549;-70
2023/05/24 06:53:49;;;;;;;19.53;6.00;;;12.50;99.90;;;;;;5011611;28;20225;-71
2023/05/24 06:56:15;;;;;;;19.27;3.60;;;12.60;99.90;;;;;;5013023;28;20211;-71
2023/05/24 06:58:41;;;;;;;12.77;3.50;;;12.60;99.90;;;;;;5013536;28;20422;-71
2023/05/24 07:01:07;;;;;;;11.03;3.60;;;12.70;99.90;;;;;;5013255;28;20176;-71
2023/05/24 07:03:33;;;;;;;12.40;3.60;;;12.70;99.90;;;;;;5014114;28;20264;-70
2023/05/24 07:05:59;;;;;;;13.20;3.90;;;12.80;99.90;;;;;;5011488;28;20458;-73
2023/05/24 07:08:24;;;;;;;10.70;4.40;;;12.80;99.90;;;;;;5010286;28;20422;-70
2023/05/24 07:10:50;;;;;;;14.20;4.13;;;12.10;99.90;;;;;;5015056;28;20180;-71
2023/05/24 07:13:16;;;;;;;12.60;4.53;;;12.40;99.90;;;;;;5013324;28;20607;-69
2023/05/24 07:15:42;;;;;;;10.83;4.37;;;12.30;99.90;;;;;;5020949;28;20418;-70
2023/05/24 07:18:08;;;;;;;13.30;4.57;;;12.60;99.90;;;;;;5015635;28;20196;-70
2023/05/24 07:20:33;;;;;;;13.43;4.67;;;12.90;99.90;;;;;;5011078;28;20180;-71
2023/05/24 07:23:03;;;;;;;17.53;5.30;;;12.50;99.90;;;;;;5010763;28;20214;-70
2023/05/24 07:25:29;;;;;;;17.53;5.40;;;12.70;99.90;;;;;;5015219;28;20233;-69
2023/05/24 07:27:54;;;;;;;15.50;4.80;;;12.40;99.90;;;;;;5013207;28;20837;-71
2023/05/24 07:30:20;;;;;;;15.67;3.73;;;12.80;99.90;;;;;;5015317;28;20589;-70
2023/05/24 07:32:46;;;;;;;17.63;5.00;;;13.30;99.90;;;;;;5022608;28;20238;-69
2023/05/24 07:35:12;;;;;;;14.43;4.03;;;13.00;99.90;;;;;;5016621;28;20188;-70
2023/05/24 07:37:38;;;;;;;9.57;3.60;;;13.10;99.90;;;;;;5008161;28;20315;-70
2023/05/24 07:40:07;;;;;;;10.87;4.30;;;13.60;99.90;;;;;;5030041;28;20430;-70
2023/05/24 07:42:32;;;;;;;13.10;3.80;;;13.70;99.90;;;;;;5017898;28;20419;-69
2023/05/24 07:44:58;;;;;;;13.83;4.77;;;14.00;99.90;;;;;;5011617;28;20975;-69
2023/05/24 07:47:23;;;;;;;12.67;4.93;;;14.20;99.90;;;;;;5022609;28;20203;-69
2023/05/24 07:49:49;;;;;;;16.10;4.07;;;13.60;99.90;;;;;;5022166;28;20532;-69
2023/05/24 07:52:15;;;;;;;16.67;4.47;;;13.70;99.90;;;;;;5014445;28;20192;-69
2023/05/24 07:54:41;;;;;;;11.97;4.60;;;13.00;99.90;;;;;;5017671;28;20190;-69
2023/05/24 07:57:07;;;;;;;12.47;4.60;;;13.30;99.90;;;;;;5021192;28;20257;-70
2023/05/24 07:59:32;;;;;;;7.87;3.83;;;13.20;99.90;;;;;;5010719;28;20423;-69
2023/05/24 08:02:02;;;;;;;11.50;3.20;;;13.60;99.90;;;;;;5013788;28;20421;-69
2023/05/24 08:04:28;;;;;;;11.30;3.97;;;13.70;99.90;;;;;;5017841;28;20184;-69
2023/05/24 08:06:54;;;;;;;8.03;3.10;;;13.80;99.90;;;;;;5016954;28;20451;-68
2023/05/24 08:09:21;;;;;;;8.03;3.57;;;14.10;99.90;;;;;;5015445;28;20775;-69
2023/05/24 08:11:47;;;;;;;13.17;4.77;;;14.20;99.90;;;;;;5013226;28;20198;-70
2023/05/24 08:14:12;;;;;;;17.47;4.53;;;13.90;99.90;;;;;;5011336;28;20419;-68
2023/05/24 08:16:38;;;;;;;13.70;5.40;;;14.10;99.90;;;;;;5014206;28;20571;-68
2023/05/24 08:19:03;;;;;;;12.63;5.07;;;13.90;99.90;;;;;;5011528;28;20189;-69
2023/05/24 08:21:30;;;;;;;9.27;4.17;;;14.20;99.90;;;;;;5015244;28;20185;-69
2023/05/24 08:23:56;;;;;;;9.30;4.10;;;14.40;99.90;;;;;;5018662;28;20169;-70
2023/05/24 08:26:23;;;;;;;8.40;4.03;;;14.30;99.90;;;;;;5016329;28;20459;-70
2023/05/24 08:28:48;;;;;;;10.17;5.30;;;14.10;99.90;;;;;;5017664;28;20208;-70
2023/05/24 08:31:15;;;;;;;11.30;4.13;;;14.10;99.90;;;;;;5016690;28;20453;-70
2023/05/24 08:33:41;;;;;;;15.70;4.60;;;13.30;99.90;;;;;;5022134;28;20223;-69
2023/05/24 08:36:07;;;;;;;20.07;4.43;;;13.50;99.90;;;;;;5021382;28;20904;-69
2023/05/24 08:38:33;;;;;;;16.43;5.20;;;13.40;99.90;;;;;;5016232;28;20447;-69
2023/05/24 08:40:59;;;;;;;14.30;4.80;;;13.00;99.90;;;;;;5014954;28;20171;-69
2023/05/24 08:43:27;;;;;;;19.93;4.60;;;13.40;99.90;;;;;;5013522;28;20588;-71
2023/05/24 08:45:53;;;;;;;10.57;4.17;;;13.10;99.90;;;;;;5017735;28;20473;-70
2023/05/24 08:48:20;;;;;;;7.53;3.70;;;12.90;99.90;;;;;;5019189;28;20450;-68
2023/05/24 08:50:46;;;;;;;15.97;3.93;;;13.80;99.90;;;;;;5018345;28;20410;-75
2023/05/24 08:53:13;;;;;;;8.00;4.23;;;13.60;99.90;;;;;;5021684;28;20406;-70
2023/05/24 08:55:39;;;;;;;13.60;4.17;;;13.90;99.90;;;;;;5018517;28;20415;-69
2023/05/24 08:58:05;;;;;;;9.30;3.87;;;13.90;99.90;;;;;;5010603;28;20797;-69
2023/05/24 09:00:31;;;;;;;14.27;4.73;;;13.70;99.90;;;;;;5013807;28;20512;-70
2023/05/24 09:02:57;;;;;;;12.10;4.00;;;14.00;99.90;;;;;;5016138;28;20407;-70
2023/05/24 09:05:24;;;;;;;12.27;3.90;;;13.90;99.90;;;;;;5020133;28;20222;-70
2023/05/24 09:07:51;;;;;;;9.47;3.70;;;14.20;99.90;;;;;;5022227;28;20434;-69
2023/05/24 09:10:20;;;;;;;8.50;3.53;;;14.60;99.90;;;;;;5026970;28;20509;-69
2023/05/24 09:12:50;;;;;;;8.07;4.53;;;14.20;99.90;;;;;;5011542;28;20489;-70
2023/05/24 09:15:16;;;;;;;6.30;2.83;;;13.40;99.90;;;;;;5014118;28;20904;-70
2023/05/24 09:17:42;;;;;;;13.63;4.67;;;13.90;99.90;;;;;;5018744;28;20774;-70
2023/05/24 09:20:09;;;;;;;7.30;4.40;;;14.50;99.90;;;;;;5023450;28;20180;-70
2023/05/24 09:22:39;;;;;;;11.27;3.50;;;14.70;99.90;;;;;;5016364;28;20412;-70
2023/05/24 09:25:06;;;;;;;12.10;3.93;;;15.00;99.90;;;;;;5021296;28;20447;-69
2023/05/24 09:27:33;;;;;;;8.90;3.50;;;15.20;99.90;;;;;;5026652;28;20449;-69
2023/05/24 09:30:00;;;;;;;10.13;3.70;;;15.20;99.90;;;;;;5021342;28;20464;-69
2023/05/24 09:32:27;;;;;;;10.80;4.10;;;15.40;99.90;;;;;;5020601;28;20417;-70
2023/05/24 09:34:56;;;;;;;12.33;5.43;;;15.50;99.90;;;;;;5023327;28;20420;-69
2023/05/24 09:37:26;;;;;;;12.13;4.80;;;15.60;99.90;;;;;;5020127;28;20453;-69
2023/05/24 09:39:52;;;;;;;14.07;5.23;;;15.50;99.90;;;;;;5016116;28;20413;-69
2023/05/24 09:42:25;;;;;;;5.27;3.47;;;15.70;99.90;;;;;;5021920;28;20499;-70
2023/05/24 09:45:10;;;;;;;8.30;3.57;;;15.20;99.90;;;;;;5020964;28;20546;-71
2023/05/24 09:47:40;;;;;;;13.73;4.10;;;14.90;99.90;;;;;;5016154;28;20498;-70
2023/05/24 09:50:12;;;;;;;12.00;3.77;;;14.80;99.90;;;;;;5023320;28;20471;-72
2023/05/24 09:52:38;;;;;;;9.43;3.80;;;14.90;99.90;;;;;;5023091;28;20445;-69
2023/05/24 09:55:19;;;;;;;5.93;2.67;;;15.00;99.90;;;;;;5024919;28;20453;-69
2023/05/24 09:57:54;;;;;;;16.87;6.77;;;14.90;99.90;;;;;;5021836;28;20275;-70
2023/05/24 10:00:22;;;;;;;9.20;3.97;;;15.10;99.90;;;;;;5023651;28;20451;-69
2023/05/24 10:03:01;;;;;;;8.97;4.43;;;15.60;99.90;;;;;;5012303;28;20414;-69
2023/05/24 10:05:27;;;;;;;10.43;2.70;;;16.20;99.90;;;;;;5024878;28;20456;-69
2023/05/24 10:07:54;;;;;;;4.77;2.50;;;15.40;99.90;;;;;;5023560;28;20453;-69
2023/05/24 10:10:20;;;;;;;14.73;3.90;;;15.50;99.90;;;;;;5013100;28;20504;-71
2023/05/24 10:12:46;;;;;;;7.47;2.90;;;15.40;99.90;;;;;;5014069;28;20460;-69
2023/05/24 10:15:12;;;;;;;6.33;3.83;;;14.90;99.90;;;;;;5025496;28;20686;-70
2023/05/24 10:17:37;;;;;;;10.90;4.13;;;15.60;99.90;;;;;;5013654;28;20232;-69
2023/05/24 10:20:05;;;;;;;6.90;3.23;;;15.70;99.90;;;;;;5012287;28;20169;-70
2023/05/24 10:22:35;;;;;;;9.47;3.83;;;15.80;99.90;;;;;;5024370;28;20184;-70
2023/05/24 10:25:05;;;;;;;9.77;4.60;;;16.30;99.90;;;;;;5019147;28;20447;-69
2023/05/24 10:27:32;;;;;;;8.33;3.30;;;16.10;99.90;;;;;;5018901;28;20475;-71
2023/05/24 10:30:13;;;;;;;11.33;3.53;;;16.60;99.90;;;;;;5012578;28;20902;-69
2023/05/24 10:32:41;;;;;;;5.43;3.27;;;16.50;99.90;;;;;;5012057;28;20393;-69
2023/05/24 10:35:11;;;;;;;6.57;3.00;;;16.70;99.90;;;;;;5019942;28;20415;-70
2023/05/24 10:37:36;;;;;;;4.73;3.17;;;17.30;99.90;;;;;;5026632;28;20542;-70
2023/05/24 10:40:05;;;;;;;4.73;2.73;;;17.20;99.90;;;;;;5013542;28;20846;-69
2023/05/24 10:42:31;;;;;;;8.63;3.63;;;17.30;99.90;;;;;;5020789;28;20172;-70
2023/05/24 10:44:56;;;;;;;8.93;4.07;;;17.50;99.90;;;;;;5017337;28;20459;-70
2023/05/24 10:47:27;;;;;;;6.00;3.10;;;17.60;99.90;;;;;;5012781;28;20193;-70
2023/05/24 10:49:58;;;;;;;6.33;3.20;;;17.10;99.90;;;;;;5027982;28;20174;-70
2023/05/24 10:52:34;;;;;;;5.33;2.60;;;17.00;99.90;;;;;;5020603;28;20841;-69
2023/05/24 10:55:08;;;;;;;8.10;3.13;;;16.70;99.90;;;;;;5023742;28;20467;-69
2023/05/24 10:57:34;;;;;;;10.60;4.50;;;16.60;99.90;;;;;;5027680;28;20419;-69
2023/05/24 11:00:23;;;;;;;8.60;3.00;;;16.70;99.90;;;;;;5015963;28;20455;-69
2023/05/24 11:02:50;;;;;;;7.43;3.27;;;16.60;99.90;;;;;;5000285;28;20447;-68
2023/05/24 11:05:17;;;;;;;6.47;2.83;;;16.10;99.90;;;;;;5023087;28;20438;-70
2023/05/24 11:07:43;;;;;;;14.30;4.43;;;16.40;99.90;;;;;;5012787;28;20437;-69
2023/05/24 11:10:28;;;;;;;8.50;3.60;;;15.50;99.90;;;;;;5017902;28;20879;-69
2023/05/24 11:12:59;;;;;;;4.70;3.00;;;15.30;99.90;;;;;;5018254;28;20405;-70
2023/05/24 11:15:25;;;;;;;6.80;3.07;;;15.80;99.90;;;;;;5013285;28;20979;-69
2023/05/24 11:18:08;;;;;;;4.17;3.00;;;15.70;99.90;;;;;;5020774;28;20440;-69
2023/05/24 11:20:35;;;;;;;5.60;3.50;;;15.40;99.90;;;;;;5020197;28;20210;-71
2023/05/24 11:23:05;;;;;;;8.03;3.20;;;15.30;99.90;;;;;;5014999;28;20473;-70
2023/05/24 11:25:32;;;;;;;7.20;2.90;;;15.30;99.90;;;;;;5011575;28;20445;-70
2023/05/24 11:28:00;;;;;;;6.70;2.33;;;15.80;99.90;;;;;;5013503;28;20918;-69
2023/05/24 11:30:25;;;;;;;4.33;2.30;;;15.80;99.90;;;;;;5012457;28;20501;-71
2023/05/24 11:32:51;;;;;;;5.37;2.73;;;16.00;99.90;;;;;;5024097;28;20513;-68
2023/05/24 11:35:21;;;;;;;7.10;2.90;;;15.70;99.90;;;;;;5010430;28;20180;-66
2023/05/24 11:37:47;;;;;;;6.17;3.23;;;16.00;99.90;;;;;;5024310;28;20305;-69
2023/05/24 11:40:15;;;;;;;5.83;2.47;;;16.70;99.90;;;;;;5008647;28;20518;-69
2023/05/24 11:42:41;;;;;;;8.90;3.20;;;16.30;99.90;;;;;;5019572;28;20171;-69
2023/05/24 11:45:09;;;;;;;8.07;2.97;;;16.00;99.90;;;;;;5014312;28;20489;-69
2023/05/24 11:47:38;;;;;;;5.73;3.20;;;15.80;99.90;;;;;;5012828;28;20899;-69
2023/05/24 11:50:05;;;;;;;6.47;3.00;;;16.10;99.90;;;;;;5019341;28;20431;-69
2023/05/24 11:52:31;;;;;;;10.50;2.67;;;16.50;99.90;;;;;;5020665;28;20425;-69
2023/05/24 11:54:57;;;;;;;5.50;2.70;;;16.60;99.90;;;;;;5023015;28;20778;-69
2023/05/24 11:57:35;;;;;;;5.00;3.03;;;16.60;99.90;;;;;;5016506;28;20204;-69
2023/05/24 12:00:01;;;;;;;6.30;2.70;;;16.60;99.90;;;;;;5015876;28;20348;-69
2023/05/24 12:02:29;;;;;;;8.03;3.03;;;16.30;99.90;;;;;;5012508;28;20988;-69
2023/05/24 12:04:54;;;;;;;7.73;2.93;;;16.90;99.90;;;;;;5014573;28;20196;-69
2023/05/24 12:07:22;;;;;;;6.80;2.87;;;16.80;99.90;;;;;;5011937;28;20442;-70
2023/05/24 12:09:49;;;;;;;6.17;2.80;;;15.90;99.90;;;;;;5008823;28;20167;-69
2023/05/24 12:12:15;;;;;;;5.43;2.93;;;15.90;99.90;;;;;;5010306;28;20422;-69
2023/05/24 12:14:40;;;;;;;10.13;3.27;;;16.40;99.90;;;;;;5018859;28;20422;-69
2023/05/24 12:17:15;;;;;;;4.90;3.00;;;16.00;99.90;;;;;;5014871;28;20193;-69
2023/05/24 12:19:42;;;;;;;8.13;3.20;;;16.10;99.90;;;;;;5021000;28;20177;-69
2023/05/24 12:22:08;;;;;;;5.80;3.20;;;16.00;99.90;;;;;;5016819;28;20447;-70
2023/05/24 12:24:34;;;;;;;5.43;3.47;;;16.10;99.90;;;;;;5019212;28;20441;-70
2023/05/24 12:27:02;;;;;;;4.47;2.47;;;16.10;99.90;;;;;;5010335;28;20235;-70
2023/05/24 12:29:35;;;;;;;8.57;2.87;;;16.10;99.90;;;;;;5012785;28;20455;-69
2023/05/24 12:32:01;;;;;;;5.10;3.23;;;16.40;99.90;;;;;;5011969;28;20402;-70
2023/05/24 12:34:28;;;;;;;8.10;3.07;;;16.10;99.90;;;;;;5009913;28;20472;-68
2023/05/24 12:36:55;;;;;;;5.90;3.33;;;16.10;99.90;;;;;;5018940;28;20509;-69
2023/05/24 12:39:23;;;;;;;5.80;2.80;;;16.00;99.90;;;;;;5015265;28;20500;-69
2023/05/24 12:41:53;;;;;;;7.83;2.77;;;16.00;99.90;;;;;;5006532;28;20492;-69
2023/05/24 12:44:29;;;;;;;4.87;2.43;;;16.30;99.90;;;;;;5018263;28;20461;-69
2023/05/24 12:46:56;;;;;;;4.03;2.50;;;16.40;99.90;;;;;;5019467;28;20517;-68